sensor_id;sensor_type;location;lat;lon;timestamp;P1;durP1;ratioP1;P2;durP2;ratioP2
15555;SDS011;7879;48.660;9.116;2023-05-02T00:00:02;0.20;;;0.20;;
15555;SDS011;7879;48.660;9.116;2023-05-02T00:02:29;0.15;;;0.15;;
15555;SDS011;7879;48.660;9.116;2023-05-02T00:04:56;0.30;;;0.30;;
15555;SDS011;7879;48.660;9.116;2023-05-02T00:07:23;0.20;;;0.20;;
15555;SDS011;7879;48.660;9.116;2023-05-02T00:09:51;0.10;;;0.10;;
15555;SDS011;7879;48.660;9.116;2023-05-02T00:12:18;0.20;;;0.20;;
15555;SDS011;7879;48.660;9.116;2023-05-02T00:14:45;0.20;;;0.20;;
15555;SDS011;7879;48.660;9.116;2023-05-02T00:17:15;0.10;;;0.10;;
15555;SDS011;7879;48.660;9.116;2023-05-02T00:19:44;0.30;;;0.30;;
15555;SDS011;7879;48.660;9.116;2023-05-02T00:22:11;0.20;;;0.20;;
15555;SDS011;7879;48.660;9.116;2023-05-02T00:24:38;0.10;;;0.10;;
15555;SDS011;7879;48.660;9.116;2023-05-02T00:27:05;0.25;;;0.25;;
15555;SDS011;7879;48.660;9.116;2023-05-02T00:29:32;0.20;;;0.20;;
15555;SDS011;7879;48.660;9.116;2023-05-02T00:31:58;0.10;;;0.10;;
15555;SDS011;7879;48.660;9.116;2023-05-02T00:34:29;0.20;;;0.20;;
15555;SDS011;7879;48.660;9.116;2023-05-02T00:36:56;0.22;;;0.22;;
15555;SDS011;7879;48.660;9.116;2023-05-02T00:39:23;0.20;;;0.20;;
15555;SDS011;7879;48.660;9.116;2023-05-02T00:41:57;0.10;;;0.10;;
15555;SDS011;7879;48.660;9.116;2023-05-02T00:44:24;0.20;;;0.20;;
15555;SDS011;7879;48.660;9.116;2023-05-02T00:46:51;0.20;;;0.20;;
15555;SDS011;7879;48.660;9.116;2023-05-02T00:49:18;0.17;;;0.17;;
15555;SDS011;7879;48.660;9.116;2023-05-02T00:51:45;0.30;;;0.30;;
15555;SDS011;7879;48.660;9.116;2023-05-02T00:54:12;0.20;;;0.20;;
15555;SDS011;7879;48.660;9.116;2023-05-02T00:56:40;0.10;;;0.10;;
15555;SDS011;7879;48.660;9.116;2023-05-02T00:59:07;0.20;;;0.20;;
15555;SDS011;7879;48.660;9.116;2023-05-02T01:12:25;0.10;;;0.10;;
15555;SDS011;7879;48.660;9.116;2023-05-02T01:14:56;0.20;;;0.20;;
15555;SDS011;7879;48.660;9.116;2023-05-02T01:17:27;0.20;;;0.20;;
15555;SDS011;7879;48.660;9.116;2023-05-02T01:19:58;0.10;;;0.10;;
15555;SDS011;7879;48.660;9.116;2023-05-02T01:22:28;0.20;;;0.20;;
15555;SDS011;7879;48.660;9.116;2023-05-02T01:27:33;0.10;;;0.10;;
15555;SDS011;7879;48.660;9.116;2023-05-02T01:30:08;0.30;;;0.30;;
15555;SDS011;7879;48.660;9.116;2023-05-02T01:32:38;0.20;;;0.20;;
15555;SDS011;7879;48.660;9.116;2023-05-02T01:35:10;0.20;;;0.20;;
15555;SDS011;7879;48.660;9.116;2023-05-02T01:37:42;0.20;;;0.20;;
15555;SDS011;7879;48.660;9.116;2023-05-02T01:40:10;0.30;;;0.30;;
15555;SDS011;7879;48.660;9.116;2023-05-02T01:42:42;0.20;;;0.20;;
15555;SDS011;7879;48.660;9.116;2023-05-02T01:45:11;0.20;;;0.20;;
15555;SDS011;7879;48.660;9.116;2023-05-02T01:47:40;0.30;;;0.30;;
15555;SDS011;7879;48.660;9.116;2023-05-02T01:50:13;0.20;;;0.20;;
15555;SDS011;7879;48.660;9.116;2023-05-02T01:52:44;0.10;;;0.10;;
15555;SDS011;7879;48.660;9.116;2023-05-02T01:55:14;0.30;;;0.30;;
15555;SDS011;7879;48.660;9.116;2023-05-02T01:57:43;0.20;;;0.20;;
15555;SDS011;7879;48.660;9.116;2023-05-02T02:00:12;0.10;;;0.10;;
15555;SDS011;7879;48.660;9.116;2023-05-02T02:02:42;0.20;;;0.20;;
15555;SDS011;7879;48.660;9.116;2023-05-02T02:05:11;0.30;;;0.30;;
15555;SDS011;7879;48.660;9.116;2023-05-02T02:07:39;0.20;;;0.20;;
15555;SDS011;7879;48.660;9.116;2023-05-02T02:10:07;0.10;;;0.10;;
15555;SDS011;7879;48.660;9.116;2023-05-02T02:12:40;0.20;;;0.20;;
15555;SDS011;7879;48.660;9.116;2023-05-02T02:15:12;0.20;;;0.20;;
15555;SDS011;7879;48.660;9.116;2023-05-02T02:17:59;0.20;;;0.20;;
15555;SDS011;7879;48.660;9.116;2023-05-02T02:20:30;0.20;;;0.20;;
15555;SDS011;7879;48.660;9.116;2023-05-02T02:22:59;0.30;;;0.30;;
15555;SDS011;7879;48.660;9.116;2023-05-02T02:25:28;0.20;;;0.20;;
15555;SDS011;7879;48.660;9.116;2023-05-02T02:27:55;0.20;;;0.20;;
15555;SDS011;7879;48.660;9.116;2023-05-02T02:30:23;0.10;;;0.10;;
15555;SDS011;7879;48.660;9.116;2023-05-02T02:32:50;0.25;;;0.25;;
15555;SDS011;7879;48.660;9.116;2023-05-02T02:35:17;0.30;;;0.30;;
15555;SDS011;7879;48.660;9.116;2023-05-02T02:37:50;0.20;;;0.20;;
15555;SDS011;7879;48.660;9.116;2023-05-02T02:40:30;0.15;;;0.15;;
15555;SDS011;7879;48.660;9.116;2023-05-02T02:43:18;0.20;;;0.20;;
15555;SDS011;7879;48.660;9.116;2023-05-02T02:48:49;0.20;;;0.20;;
15555;SDS011;7879;48.660;9.116;2023-05-02T02:51:29;0.20;;;0.20;;
15555;SDS011;7879;48.660;9.116;2023-05-02T03:00:01;0.20;;;0.20;;
15555;SDS011;7879;48.660;9.116;2023-05-02T03:02:51;0.20;;;0.20;;
15555;SDS011;7879;48.660;9.116;2023-05-02T03:05:20;0.30;;;0.30;;
15555;SDS011;7879;48.660;9.116;2023-05-02T03:07:48;0.20;;;0.20;;
15555;SDS011;7879;48.660;9.116;2023-05-02T03:10:14;0.20;;;0.20;;
15555;SDS011;7879;48.660;9.116;2023-05-02T03:12:42;0.20;;;0.20;;
15555;SDS011;7879;48.660;9.116;2023-05-02T03:16:01;0.30;;;0.30;;
15555;SDS011;7879;48.660;9.116;2023-05-02T03:17:56;0.20;;;0.20;;
15555;SDS011;7879;48.660;9.116;2023-05-02T03:20:23;0.20;;;0.20;;
15555;SDS011;7879;48.660;9.116;2023-05-02T03:22:50;0.10;;;0.10;;
15555;SDS011;7879;48.660;9.116;2023-05-02T03:25:17;0.28;;;0.28;;
15555;SDS011;7879;48.660;9.116;2023-05-02T03:27:44;0.30;;;0.30;;
15555;SDS011;7879;48.660;9.116;2023-05-02T03:30:10;0.20;;;0.20;;
15555;SDS011;7879;48.660;9.116;2023-05-02T03:32:39;0.10;;;0.10;;
15555;SDS011;7879;48.660;9.116;2023-05-02T03:35:06;0.10;;;0.10;;
15555;SDS011;7879;48.660;9.116;2023-05-02T03:37:33;0.30;;;0.30;;
15555;SDS011;7879;48.660;9.116;2023-05-02T03:40:00;0.20;;;0.20;;
15555;SDS011;7879;48.660;9.116;2023-05-02T03:42:28;0.20;;;0.20;;
15555;SDS011;7879;48.660;9.116;2023-05-02T03:44:55;0.10;;;0.10;;
15555;SDS011;7879;48.660;9.116;2023-05-02T03:47:22;0.30;;;0.30;;
15555;SDS011;7879;48.660;9.116;2023-05-02T03:49:48;0.20;;;0.20;;
15555;SDS011;7879;48.660;9.116;2023-05-02T03:52:17;0.20;;;0.20;;
15555;SDS011;7879;48.660;9.116;2023-05-02T03:54:44;0.20;;;0.20;;
15555;SDS011;7879;48.660;9.116;2023-05-02T03:57:11;0.20;;;0.20;;
15555;SDS011;7879;48.660;9.116;2023-05-02T03:59:38;0.20;;;0.20;;
15555;SDS011;7879;48.660;9.116;2023-05-02T04:02:07;0.10;;;0.10;;
15555;SDS011;7879;48.660;9.116;2023-05-02T04:04:34;0.30;;;0.30;;
15555;SDS011;7879;48.660;9.116;2023-05-02T04:07:02;0.20;;;0.20;;
15555;SDS011;7879;48.660;9.116;2023-05-02T04:09:29;0.10;;;0.10;;
15555;SDS011;7879;48.660;9.116;2023-05-02T04:11:56;0.20;;;0.20;;
15555;SDS011;7879;48.660;9.116;2023-05-02T04:14:22;0.20;;;0.20;;
15555;SDS011;7879;48.660;9.116;2023-05-02T04:16:49;0.10;;;0.10;;
15555;SDS011;7879;48.660;9.116;2023-05-02T04:19:17;0.20;;;0.20;;
15555;SDS011;7879;48.660;9.116;2023-05-02T04:21:44;0.20;;;0.20;;
15555;SDS011;7879;48.660;9.116;2023-05-02T04:24:12;0.10;;;0.10;;
15555;SDS011;7879;48.660;9.116;2023-05-02T04:26:39;0.20;;;0.20;;
15555;SDS011;7879;48.660;9.116;2023-05-02T04:29:06;0.20;;;0.20;;
15555;SDS011;7879;48.660;9.116;2023-05-02T04:31:33;0.10;;;0.10;;
15555;SDS011;7879;48.660;9.116;2023-05-02T04:34:00;0.20;;;0.20;;
15555;SDS011;7879;48.660;9.116;2023-05-02T04:36:27;0.10;;;0.10;;
15555;SDS011;7879;48.660;9.116;2023-05-02T04:38:54;0.20;;;0.20;;
15555;SDS011;7879;48.660;9.116;2023-05-02T04:41:21;0.20;;;0.20;;
15555;SDS011;7879;48.660;9.116;2023-05-02T04:43:48;0.10;;;0.10;;
15555;SDS011;7879;48.660;9.116;2023-05-02T04:46:15;0.20;;;0.20;;
15555;SDS011;7879;48.660;9.116;2023-05-02T04:48:46;0.20;;;0.20;;
15555;SDS011;7879;48.660;9.116;2023-05-02T04:51:12;0.10;;;0.10;;
15555;SDS011;7879;48.660;9.116;2023-05-02T04:53:42;0.20;;;0.20;;
15555;SDS011;7879;48.660;9.116;2023-05-02T04:56:09;0.10;;;0.10;;
15555;SDS011;7879;48.660;9.116;2023-05-02T04:58:45;0.20;;;0.20;;
15555;SDS011;7879;48.660;9.116;2023-05-02T05:01:12;0.17;;;0.17;;
15555;SDS011;7879;48.660;9.116;2023-05-02T05:03:39;0.10;;;0.10;;
15555;SDS011;7879;48.660;9.116;2023-05-02T05:06:05;0.20;;;0.20;;
15555;SDS011;7879;48.660;9.116;2023-05-02T05:08:33;0.10;;;0.10;;
15555;SDS011;7879;48.660;9.116;2023-05-02T05:10:59;0.22;;;0.22;;
15555;SDS011;7879;48.660;9.116;2023-05-02T05:13:27;0.10;;;0.10;;
15555;SDS011;7879;48.660;9.116;2023-05-02T05:15:53;0.20;;;0.20;;
15555;SDS011;7879;48.660;9.116;2023-05-02T05:18:20;0.10;;;0.10;;
15555;SDS011;7879;48.660;9.116;2023-05-02T05:20:47;0.20;;;0.20;;
15555;SDS011;7879;48.660;9.116;2023-05-02T05:23:14;0.10;;;0.10;;
15555;SDS011;7879;48.660;9.116;2023-05-02T05:25:41;0.15;;;0.15;;
15555;SDS011;7879;48.660;9.116;2023-05-02T05:28:10;0.10;;;0.10;;
15555;SDS011;7879;48.660;9.116;2023-05-02T05:30:37;0.10;;;0.10;;
15555;SDS011;7879;48.660;9.116;2023-05-02T05:33:04;0.20;;;0.20;;
15555;SDS011;7879;48.660;9.116;2023-05-02T05:35:31;0.10;;;0.10;;
15555;SDS011;7879;48.660;9.116;2023-05-02T05:37:59;0.20;;;0.20;;
15555;SDS011;7879;48.660;9.116;2023-05-02T05:40:26;0.10;;;0.10;;
15555;SDS011;7879;48.660;9.116;2023-05-02T05:42:53;0.20;;;0.20;;
15555;SDS011;7879;48.660;9.116;2023-05-02T05:45:20;0.10;;;0.10;;
15555;SDS011;7879;48.660;9.116;2023-05-02T05:47:47;0.10;;;0.10;;
15555;SDS011;7879;48.660;9.116;2023-05-02T05:50:15;0.17;;;0.17;;
15555;SDS011;7879;48.660;9.116;2023-05-02T05:52:44;0.10;;;0.10;;
15555;SDS011;7879;48.660;9.116;2023-05-02T05:55:11;0.20;;;0.20;;
15555;SDS011;7879;48.660;9.116;2023-05-02T05:57:38;0.10;;;0.10;;
15555;SDS011;7879;48.660;9.116;2023-05-02T06:00:05;0.20;;;0.20;;
15555;SDS011;7879;48.660;9.116;2023-05-02T06:02:33;0.20;;;0.20;;
15555;SDS011;7879;48.660;9.116;2023-05-02T06:05:06;0.10;;;0.10;;
15555;SDS011;7879;48.660;9.116;2023-05-02T06:07:39;0.10;;;0.10;;
15555;SDS011;7879;48.660;9.116;2023-05-02T06:10:06;0.10;;;0.10;;
15555;SDS011;7879;48.660;9.116;2023-05-02T06:12:34;0.10;;;0.10;;
15555;SDS011;7879;48.660;9.116;2023-05-02T06:15:06;0.20;;;0.20;;
15555;SDS011;7879;48.660;9.116;2023-05-02T06:17:41;0.10;;;0.10;;
15555;SDS011;7879;48.660;9.116;2023-05-02T06:20:17;0.10;;;0.10;;
15555;SDS011;7879;48.660;9.116;2023-05-02T06:22:44;0.10;;;0.10;;
15555;SDS011;7879;48.660;9.116;2023-05-02T06:25:11;0.10;;;0.10;;
15555;SDS011;7879;48.660;9.116;2023-05-02T06:27:39;0.10;;;0.10;;
15555;SDS011;7879;48.660;9.116;2023-05-02T06:30:08;0.10;;;0.10;;
15555;SDS011;7879;48.660;9.116;2023-05-02T06:32:35;0.20;;;0.20;;
15555;SDS011;7879;48.660;9.116;2023-05-02T06:35:02;0.10;;;0.10;;
15555;SDS011;7879;48.660;9.116;2023-05-02T06:37:35;0.10;;;0.10;;
15555;SDS011;7879;48.660;9.116;2023-05-02T06:40:05;0.10;;;0.10;;
15555;SDS011;7879;48.660;9.116;2023-05-02T06:42:35;0.20;;;0.20;;
15555;SDS011;7879;48.660;9.116;2023-05-02T06:45:05;0.10;;;0.10;;
15555;SDS011;7879;48.660;9.116;2023-05-02T06:47:32;0.10;;;0.10;;
15555;SDS011;7879;48.660;9.116;2023-05-02T06:49:59;0.10;;;0.10;;
15555;SDS011;7879;48.660;9.116;2023-05-02T06:52:30;0.10;;;0.10;;
15555;SDS011;7879;48.660;9.116;2023-05-02T06:54:57;0.10;;;0.10;;
15555;SDS011;7879;48.660;9.116;2023-05-02T06:57:24;0.10;;;0.10;;
15555;SDS011;7879;48.660;9.116;2023-05-02T06:59:51;0.10;;;0.10;;
15555;SDS011;7879;48.660;9.116;2023-05-02T07:02:17;0.10;;;0.10;;
15555;SDS011;7879;48.660;9.116;2023-05-02T07:04:44;0.10;;;0.10;;
15555;SDS011;7879;48.660;9.116;2023-05-02T07:07:12;0.10;;;0.10;;
15555;SDS011;7879;48.660;9.116;2023-05-02T07:09:40;0.10;;;0.10;;
15555;SDS011;7879;48.660;9.116;2023-05-02T07:12:10;0.10;;;0.10;;
15555;SDS011;7879;48.660;9.116;2023-05-02T07:14:37;0.10;;;0.10;;
15555;SDS011;7879;48.660;9.116;2023-05-02T07:17:04;0.10;;;0.10;;
15555;SDS011;7879;48.660;9.116;2023-05-02T07:19:35;0.10;;;0.10;;
15555;SDS011;7879;48.660;9.116;2023-05-02T07:22:02;0.10;;;0.10;;
15555;SDS011;7879;48.660;9.116;2023-05-02T07:24:29;0.10;;;0.10;;
15555;SDS011;7879;48.660;9.116;2023-05-02T07:26:56;0.10;;;0.10;;
15555;SDS011;7879;48.660;9.116;2023-05-02T07:29:24;0.10;;;0.10;;
15555;SDS011;7879;48.660;9.116;2023-05-02T07:31:54;0.10;;;0.10;;
15555;SDS011;7879;48.660;9.116;2023-05-02T07:34:21;0.10;;;0.10;;
15555;SDS011;7879;48.660;9.116;2023-05-02T07:36:56;0.10;;;0.10;;
15555;SDS011;7879;48.660;9.116;2023-05-02T07:39:24;0.10;;;0.10;;
15555;SDS011;7879;48.660;9.116;2023-05-02T07:41:51;0.03;;;0.03;;
15555;SDS011;7879;48.660;9.116;2023-05-02T07:44:20;0.08;;;0.08;;
15555;SDS011;7879;48.660;9.116;2023-05-02T07:46:47;0.10;;;0.10;;
15555;SDS011;7879;48.660;9.116;2023-05-02T07:49:14;0.08;;;0.08;;
15555;SDS011;7879;48.660;9.116;2023-05-02T07:51:42;0.10;;;0.10;;
15555;SDS011;7879;48.660;9.116;2023-05-02T07:54:19;0.00;;;0.00;;
15555;SDS011;7879;48.660;9.116;2023-05-02T07:56:47;0.10;;;0.10;;
15555;SDS011;7879;48.660;9.116;2023-05-02T07:59:14;0.10;;;0.10;;
15555;SDS011;7879;48.660;9.116;2023-05-02T08:01:46;0.10;;;0.10;;
15555;SDS011;7879;48.660;9.116;2023-05-02T08:04:14;0.10;;;0.10;;
15555;SDS011;7879;48.660;9.116;2023-05-02T08:06:44;0.10;;;0.10;;
15555;SDS011;7879;48.660;9.116;2023-05-02T08:09:15;0.10;;;0.10;;
15555;SDS011;7879;48.660;9.116;2023-05-02T08:11:43;0.10;;;0.10;;
15555;SDS011;7879;48.660;9.116;2023-05-02T08:14:10;0.00;;;0.00;;
15555;SDS011;7879;48.660;9.116;2023-05-02T08:16:37;0.00;;;0.00;;
15555;SDS011;7879;48.660;9.116;2023-05-02T08:19:14;0.10;;;0.10;;
15555;SDS011;7879;48.660;9.116;2023-05-02T08:21:42;0.10;;;0.10;;
15555;SDS011;7879;48.660;9.116;2023-05-02T08:24:09;0.00;;;0.00;;
15555;SDS011;7879;48.660;9.116;2023-05-02T08:26:36;0.00;;;0.00;;
15555;SDS011;7879;48.660;9.116;2023-05-02T08:29:10;0.10;;;0.10;;
15555;SDS011;7879;48.660;9.116;2023-05-02T08:31:40;0.10;;;0.10;;
15555;SDS011;7879;48.660;9.116;2023-05-02T08:34:20;0.00;;;0.00;;
15555;SDS011;7879;48.660;9.116;2023-05-02T08:36:56;0.10;;;0.10;;
15555;SDS011;7879;48.660;9.116;2023-05-02T08:39:26;0.10;;;0.10;;
15555;SDS011;7879;48.660;9.116;2023-05-02T08:42:06;0.10;;;0.10;;
15555;SDS011;7879;48.660;9.116;2023-05-02T08:44:36;0.00;;;0.00;;
15555;SDS011;7879;48.660;9.116;2023-05-02T08:47:06;0.10;;;0.10;;
15555;SDS011;7879;48.660;9.116;2023-05-02T08:49:36;0.10;;;0.10;;
15555;SDS011;7879;48.660;9.116;2023-05-02T08:52:07;0.10;;;0.10;;
15555;SDS011;7879;48.660;9.116;2023-05-02T08:54:37;0.10;;;0.10;;
15555;SDS011;7879;48.660;9.116;2023-05-02T08:57:04;0.10;;;0.10;;
15555;SDS011;7879;48.660;9.116;2023-05-02T08:59:32;0.10;;;0.10;;
15555;SDS011;7879;48.660;9.116;2023-05-02T09:02:03;0.10;;;0.10;;
15555;SDS011;7879;48.660;9.116;2023-05-02T09:04:38;0.00;;;0.00;;
15555;SDS011;7879;48.660;9.116;2023-05-02T09:07:43;0.00;;;0.00;;
15555;SDS011;7879;48.660;9.116;2023-05-02T09:10:15;0.00;;;0.00;;
15555;SDS011;7879;48.660;9.116;2023-05-02T09:12:47;0.10;;;0.10;;
15555;SDS011;7879;48.660;9.116;2023-05-02T09:15:18;0.00;;;0.00;;
15555;SDS011;7879;48.660;9.116;2023-05-02T09:17:50;0.00;;;0.00;;
15555;SDS011;7879;48.660;9.116;2023-05-02T09:20:17;0.10;;;0.10;;
15555;SDS011;7879;48.660;9.116;2023-05-02T09:22:51;0.00;;;0.00;;
15555;SDS011;7879;48.660;9.116;2023-05-02T09:25:18;0.00;;;0.00;;
15555;SDS011;7879;48.660;9.116;2023-05-02T09:27:53;0.00;;;0.00;;
15555;SDS011;7879;48.660;9.116;2023-05-02T09:30:24;0.00;;;0.00;;
15555;SDS011;7879;48.660;9.116;2023-05-02T09:33:03;0.00;;;0.00;;
15555;SDS011;7879;48.660;9.116;2023-05-02T09:35:52;0.00;;;0.00;;
15555;SDS011;7879;48.660;9.116;2023-05-02T09:38:24;0.00;;;0.00;;
15555;SDS011;7879;48.660;9.116;2023-05-02T09:41:03;0.00;;;0.00;;
15555;SDS011;7879;48.660;9.116;2023-05-02T09:43:41;0.00;;;0.00;;
15555;SDS011;7879;48.660;9.116;2023-05-02T09:46:11;0.00;;;0.00;;
15555;SDS011;7879;48.660;9.116;2023-05-02T09:48:57;0.00;;;0.00;;
15555;SDS011;7879;48.660;9.116;2023-05-02T09:51:24;0.00;;;0.00;;
15555;SDS011;7879;48.660;9.116;2023-05-02T09:53:52;0.00;;;0.00;;
15555;SDS011;7879;48.660;9.116;2023-05-02T09:56:25;0.00;;;0.00;;
15555;SDS011;7879;48.660;9.116;2023-05-02T09:59:28;0.00;;;0.00;;
15555;SDS011;7879;48.660;9.116;2023-05-02T10:01:58;0.00;;;0.00;;
15555;SDS011;7879;48.660;9.116;2023-05-02T10:04:41;0.00;;;0.00;;
15555;SDS011;7879;48.660;9.116;2023-05-02T10:07:14;0.00;;;0.00;;
15555;SDS011;7879;48.660;9.116;2023-05-02T10:10:13;0.00;;;0.00;;
15555;SDS011;7879;48.660;9.116;2023-05-02T10:12:46;0.00;;;0.00;;
15555;SDS011;7879;48.660;9.116;2023-05-02T10:15:22;0.00;;;0.00;;
15555;SDS011;7879;48.660;9.116;2023-05-02T10:18:04;0.00;;;0.00;;
15555;SDS011;7879;48.660;9.116;2023-05-02T10:21:01;0.00;;;0.00;;
15555;SDS011;7879;48.660;9.116;2023-05-02T10:23:50;0.00;;;0.00;;
15555;SDS011;7879;48.660;9.116;2023-05-02T10:26:39;0.00;;;0.00;;
15555;SDS011;7879;48.660;9.116;2023-05-02T10:29:24;0.00;;;0.00;;
15555;SDS011;7879;48.660;9.116;2023-05-02T10:32:08;0.00;;;0.00;;
15555;SDS011;7879;48.660;9.116;2023-05-02T10:34:51;0.00;;;0.00;;
15555;SDS011;7879;48.660;9.116;2023-05-02T10:37:29;0.00;;;0.00;;
15555;SDS011;7879;48.660;9.116;2023-05-02T10:39:59;0.00;;;0.00;;
15555;SDS011;7879;48.660;9.116;2023-05-02T10:45:52;0.00;;;0.00;;
15555;SDS011;7879;48.660;9.116;2023-05-02T10:51:26;0.00;;;0.00;;
15555;SDS011;7879;48.660;9.116;2023-05-02T10:54:20;0.00;;;0.00;;
15555;SDS011;7879;48.660;9.116;2023-05-02T10:57:06;0.00;;;0.00;;
15555;SDS011;7879;48.660;9.116;2023-05-02T10:59:42;0.00;;;0.00;;
15555;SDS011;7879;48.660;9.116;2023-05-02T11:05:01;0.00;;;0.00;;
15555;SDS011;7879;48.660;9.116;2023-05-02T11:07:30;0.00;;;0.00;;
15555;SDS011;7879;48.660;9.116;2023-05-02T11:10:23;0.00;;;0.00;;
15555;SDS011;7879;48.660;9.116;2023-05-02T11:13:05;0.00;;;0.00;;
15555;SDS011;7879;48.660;9.116;2023-05-02T11:18:17;0.00;;;0.00;;
15555;SDS011;7879;48.660;9.116;2023-05-02T11:21:23;0.00;;;0.00;;
15555;SDS011;7879;48.660;9.116;2023-05-02T11:30:09;0.00;;;0.00;;
15555;SDS011;7879;48.660;9.116;2023-05-02T11:35:28;0.00;;;0.00;;
15555;SDS011;7879;48.660;9.116;2023-05-02T11:40:33;0.00;;;0.00;;
15555;SDS011;7879;48.660;9.116;2023-05-02T11:43:13;0.00;;;0.00;;
15555;SDS011;7879;48.660;9.116;2023-05-02T11:46:06;0.00;;;0.00;;
15555;SDS011;7879;48.660;9.116;2023-05-02T11:48:35;0.00;;;0.00;;
15555;SDS011;7879;48.660;9.116;2023-05-02T11:51:31;0.00;;;0.00;;
15555;SDS011;7879;48.660;9.116;2023-05-02T11:54:12;0.00;;;0.00;;
15555;SDS011;7879;48.660;9.116;2023-05-02T11:56:54;0.00;;;0.00;;
15555;SDS011;7879;48.660;9.116;2023-05-02T11:59:52;0.00;;;0.00;;
15555;SDS011;7879;48.660;9.116;2023-05-02T12:02:38;0.00;;;0.00;;
15555;SDS011;7879;48.660;9.116;2023-05-02T12:05:11;0.00;;;0.00;;
15555;SDS011;7879;48.660;9.116;2023-05-02T12:07:51;0.00;;;0.00;;
15555;SDS011;7879;48.660;9.116;2023-05-02T12:10:54;0.00;;;0.00;;
15555;SDS011;7879;48.660;9.116;2023-05-02T12:13:25;0.00;;;0.00;;
15555;SDS011;7879;48.660;9.116;2023-05-02T12:16:03;0.00;;;0.00;;
15555;SDS011;7879;48.660;9.116;2023-05-02T12:19:09;0.00;;;0.00;;
15555;SDS011;7879;48.660;9.116;2023-05-02T12:21:43;0.00;;;0.00;;
15555;SDS011;7879;48.660;9.116;2023-05-02T12:24:48;0.00;;;0.00;;
15555;SDS011;7879;48.660;9.116;2023-05-02T12:27:41;0.00;;;0.00;;
15555;SDS011;7879;48.660;9.116;2023-05-02T12:34:36;0.00;;;0.00;;
15555;SDS011;7879;48.660;9.116;2023-05-02T12:37:20;0.00;;;0.00;;
15555;SDS011;7879;48.660;9.116;2023-05-02T12:43:05;0.00;;;0.00;;
15555;SDS011;7879;48.660;9.116;2023-05-02T12:45:41;0.00;;;0.00;;
15555;SDS011;7879;48.660;9.116;2023-05-02T12:48:24;0.00;;;0.00;;
15555;SDS011;7879;48.660;9.116;2023-05-02T12:50:52;0.00;;;0.00;;
15555;SDS011;7879;48.660;9.116;2023-05-02T12:53:38;0.00;;;0.00;;
15555;SDS011;7879;48.660;9.116;2023-05-02T12:56:11;0.00;;;0.00;;
15555;SDS011;7879;48.660;9.116;2023-05-02T13:02:06;0.00;;;0.00;;
15555;SDS011;7879;48.660;9.116;2023-05-02T13:04:47;0.00;;;0.00;;
15555;SDS011;7879;48.660;9.116;2023-05-02T13:07:16;0.00;;;0.00;;
15555;SDS011;7879;48.660;9.116;2023-05-02T13:09:50;0.00;;;0.00;;
15555;SDS011;7879;48.660;9.116;2023-05-02T13:12:17;0.00;;;0.00;;
15555;SDS011;7879;48.660;9.116;2023-05-02T13:14:47;0.00;;;0.00;;
15555;SDS011;7879;48.660;9.116;2023-05-02T13:17:14;0.00;;;0.00;;
15555;SDS011;7879;48.660;9.116;2023-05-02T13:19:50;0.00;;;0.00;;
15555;SDS011;7879;48.660;9.116;2023-05-02T13:22:27;0.00;;;0.00;;
15555;SDS011;7879;48.660;9.116;2023-05-02T13:25:01;0.00;;;0.00;;
15555;SDS011;7879;48.660;9.116;2023-05-02T13:27:36;0.00;;;0.00;;
15555;SDS011;7879;48.660;9.116;2023-05-02T13:30:12;0.00;;;0.00;;
15555;SDS011;7879;48.660;9.116;2023-05-02T13:32:45;0.00;;;0.00;;
15555;SDS011;7879;48.660;9.116;2023-05-02T13:35:20;0.00;;;0.00;;
15555;SDS011;7879;48.660;9.116;2023-05-02T13:37:50;0.00;;;0.00;;
15555;SDS011;7879;48.660;9.116;2023-05-02T13:40:41;0.00;;;0.00;;
15555;SDS011;7879;48.660;9.116;2023-05-02T13:43:30;0.00;;;0.00;;
15555;SDS011;7879;48.660;9.116;2023-05-02T13:46:06;0.00;;;0.00;;
15555;SDS011;7879;48.660;9.116;2023-05-02T13:48:33;0.00;;;0.00;;
15555;SDS011;7879;48.660;9.116;2023-05-02T13:51:11;0.00;;;0.00;;
15555;SDS011;7879;48.660;9.116;2023-05-02T13:53:48;0.00;;;0.00;;
15555;SDS011;7879;48.660;9.116;2023-05-02T13:56:18;0.00;;;0.00;;
15555;SDS011;7879;48.660;9.116;2023-05-02T13:59:12;0.00;;;0.00;;
15555;SDS011;7879;48.660;9.116;2023-05-02T14:01:54;0.00;;;0.00;;
15555;SDS011;7879;48.660;9.116;2023-05-02T14:04:45;0.00;;;0.00;;
15555;SDS011;7879;48.660;9.116;2023-05-02T14:07:12;0.00;;;0.00;;
15555;SDS011;7879;48.660;9.116;2023-05-02T14:09:58;0.00;;;0.00;;
15555;SDS011;7879;48.660;9.116;2023-05-02T14:13:11;0.00;;;0.00;;
15555;SDS011;7879;48.660;9.116;2023-05-02T14:16:11;0.00;;;0.00;;
15555;SDS011;7879;48.660;9.116;2023-05-02T14:18:38;0.00;;;0.00;;
15555;SDS011;7879;48.660;9.116;2023-05-02T14:21:11;0.00;;;0.00;;
15555;SDS011;7879;48.660;9.116;2023-05-02T14:23:38;0.00;;;0.00;;
15555;SDS011;7879;48.660;9.116;2023-05-02T14:26:08;0.00;;;0.00;;
15555;SDS011;7879;48.660;9.116;2023-05-02T14:28:46;0.00;;;0.00;;
15555;SDS011;7879;48.660;9.116;2023-05-02T14:31:47;0.00;;;0.00;;
15555;SDS011;7879;48.660;9.116;2023-05-02T14:34:34;0.10;;;0.10;;
15555;SDS011;7879;48.660;9.116;2023-05-02T14:37:24;0.00;;;0.00;;
15555;SDS011;7879;48.660;9.116;2023-05-02T14:40:08;0.03;;;0.03;;
15555;SDS011;7879;48.660;9.116;2023-05-02T14:43:03;0.00;;;0.00;;
15555;SDS011;7879;48.660;9.116;2023-05-02T14:45:42;0.00;;;0.00;;
15555;SDS011;7879;48.660;9.116;2023-05-02T14:48:31;0.00;;;0.00;;
15555;SDS011;7879;48.660;9.116;2023-05-02T14:51:10;0.00;;;0.00;;
15555;SDS011;7879;48.660;9.116;2023-05-02T14:54:01;0.00;;;0.00;;
15555;SDS011;7879;48.660;9.116;2023-05-02T14:56:34;0.00;;;0.00;;
15555;SDS011;7879;48.660;9.116;2023-05-02T14:59:10;0.10;;;0.10;;
15555;SDS011;7879;48.660;9.116;2023-05-02T15:01:38;0.10;;;0.10;;
15555;SDS011;7879;48.660;9.116;2023-05-02T15:04:08;0.00;;;0.00;;
15555;SDS011;7879;48.660;9.116;2023-05-02T15:06:53;0.00;;;0.00;;
15555;SDS011;7879;48.660;9.116;2023-05-02T15:09:21;0.10;;;0.10;;
15555;SDS011;7879;48.660;9.116;2023-05-02T15:11:52;0.00;;;0.00;;
15555;SDS011;7879;48.660;9.116;2023-05-02T15:14:21;0.10;;;0.10;;
15555;SDS011;7879;48.660;9.116;2023-05-02T15:16:49;0.10;;;0.10;;
15555;SDS011;7879;48.660;9.116;2023-05-02T15:19:16;0.10;;;0.10;;
15555;SDS011;7879;48.660;9.116;2023-05-02T15:21:43;0.10;;;0.10;;
15555;SDS011;7879;48.660;9.116;2023-05-02T15:24:09;0.10;;;0.10;;
15555;SDS011;7879;48.660;9.116;2023-05-02T15:26:36;0.10;;;0.10;;
15555;SDS011;7879;48.660;9.116;2023-05-02T15:29:05;0.00;;;0.00;;
15555;SDS011;7879;48.660;9.116;2023-05-02T15:31:33;0.10;;;0.10;;
15555;SDS011;7879;48.660;9.116;2023-05-02T15:34:00;0.10;;;0.10;;
15555;SDS011;7879;48.660;9.116;2023-05-02T15:36:27;0.00;;;0.00;;
15555;SDS011;7879;48.660;9.116;2023-05-02T15:38:55;0.10;;;0.10;;
15555;SDS011;7879;48.660;9.116;2023-05-02T15:41:23;0.10;;;0.10;;
15555;SDS011;7879;48.660;9.116;2023-05-02T15:43:53;0.00;;;0.00;;
15555;SDS011;7879;48.660;9.116;2023-05-02T15:46:20;0.10;;;0.10;;
15555;SDS011;7879;48.660;9.116;2023-05-02T15:48:47;0.10;;;0.10;;
15555;SDS011;7879;48.660;9.116;2023-05-02T15:51:14;0.08;;;0.08;;
15555;SDS011;7879;48.660;9.116;2023-05-02T15:53:42;0.10;;;0.10;;
15555;SDS011;7879;48.660;9.116;2023-05-02T15:56:10;0.00;;;0.00;;
15555;SDS011;7879;48.660;9.116;2023-05-02T15:58:37;0.10;;;0.10;;
15555;SDS011;7879;48.660;9.116;2023-05-02T16:01:07;0.10;;;0.10;;
15555;SDS011;7879;48.660;9.116;2023-05-02T16:03:34;0.00;;;0.00;;
15555;SDS011;7879;48.660;9.116;2023-05-02T16:06:02;0.10;;;0.10;;
15555;SDS011;7879;48.660;9.116;2023-05-02T16:08:31;0.10;;;0.10;;
15555;SDS011;7879;48.660;9.116;2023-05-02T16:10:58;0.08;;;0.08;;
15555;SDS011;7879;48.660;9.116;2023-05-02T16:13:27;0.10;;;0.10;;
15555;SDS011;7879;48.660;9.116;2023-05-02T16:15:53;0.08;;;0.08;;
15555;SDS011;7879;48.660;9.116;2023-05-02T16:18:21;0.10;;;0.10;;
15555;SDS011;7879;48.660;9.116;2023-05-02T16:20:56;0.10;;;0.10;;
15555;SDS011;7879;48.660;9.116;2023-05-02T16:23:23;0.10;;;0.10;;
15555;SDS011;7879;48.660;9.116;2023-05-02T16:25:57;0.10;;;0.10;;
15555;SDS011;7879;48.660;9.116;2023-05-02T16:28:24;0.00;;;0.00;;